sensor_id;sensor_type;location;lat;lon;timestamp;pressure;altitude;pressure_sealevel;temperature;humidity
12799;BME280;19250;42.646;26.980;2023-03-20T00:01:50;99442.53;;;7.70;100.00
12799;BME280;19250;42.646;26.980;2023-03-20T00:04:17;99446.88;;;8.22;100.00
12799;BME280;19250;42.646;26.980;2023-03-20T00:06:45;99445.09;;;8.62;100.00
12799;BME280;19250;42.646;26.980;2023-03-20T00:09:12;99440.88;;;8.60;100.00
12799;BME280;19250;42.646;26.980;2023-03-20T00:11:45;99397.78;;;8.56;100.00
12799;BME280;19250;42.646;26.980;2023-03-20T00:14:17;99427.72;;;9.08;100.00
12799;BME280;19250;42.646;26.980;2023-03-20T00:16:48;99427.28;;;8.23;100.00
12799;BME280;19250;42.646;26.980;2023-03-20T00:19:17;99427.94;;;8.36;100.00
12799;BME280;19250;42.646;26.980;2023-03-20T00:21:46;99413.53;;;8.39;100.00
12799;BME280;19250;42.646;26.980;2023-03-20T00:24:14;99418.53;;;8.72;100.00
12799;BME280;19250;42.646;26.980;2023-03-20T00:26:42;99429.78;;;8.95;100.00
12799;BME280;19250;42.646;26.980;2023-03-20T00:29:17;99425.59;;;8.92;100.00
12799;BME280;19250;42.646;26.980;2023-03-20T00:31:46;99416.06;;;8.90;100.00
12799;BME280;19250;42.646;26.980;2023-03-20T00:34:16;99418.56;;;8.82;100.00
12799;BME280;19250;42.646;26.980;2023-03-20T00:36:45;99411.69;;;8.69;100.00
12799;BME280;19250;42.646;26.980;2023-03-20T00:39:12;99421.31;;;8.61;100.00
12799;BME280;19250;42.646;26.980;2023-03-20T00:41:42;99423.00;;;8.71;100.00
12799;BME280;19250;42.646;26.980;2023-03-20T00:44:20;99434.53;;;9.01;100.00
12799;BME280;19250;42.646;26.980;2023-03-20T00:46:50;99427.84;;;9.16;100.00
12799;BME280;19250;42.646;26.980;2023-03-20T00:49:19;99411.47;;;9.11;100.00
12799;BME280;19250;42.646;26.980;2023-03-20T00:51:47;99420.41;;;9.10;100.00
12799;BME280;19250;42.646;26.980;2023-03-20T00:54:15;99416.34;;;9.06;100.00
12799;BME280;19250;42.646;26.980;2023-03-20T00:56:45;99410.47;;;9.41;100.00
12799;BME280;19250;42.646;26.980;2023-03-20T00:59:16;99406.97;;;9.21;100.00
12799;BME280;19250;42.646;26.980;2023-03-20T01:01:46;99397.03;;;9.13;100.00
12799;BME280;19250;42.646;26.980;2023-03-20T01:04:15;99401.66;;;8.92;100.00
12799;BME280;19250;42.646;26.980;2023-03-20T01:06:43;99395.63;;;9.09;100.00
12799;BME280;19250;42.646;26.980;2023-03-20T01:09:11;99391.00;;;8.83;100.00
12799;BME280;19250;42.646;26.980;2023-03-20T01:11:39;99392.25;;;8.79;100.00
12799;BME280;19250;42.646;26.980;2023-03-20T01:14:11;99365.06;;;8.56;100.00
12799;BME280;19250;42.646;26.980;2023-03-20T01:16:40;99376.88;;;9.01;100.00
12799;BME280;19250;42.646;26.980;2023-03-20T01:19:11;99385.28;;;9.16;100.00
12799;BME280;19250;42.646;26.980;2023-03-20T01:21:39;99380.47;;;8.81;100.00
12799;BME280;19250;42.646;26.980;2023-03-20T01:24:07;99370.75;;;8.42;100.00
12799;BME280;19250;42.646;26.980;2023-03-20T01:26:36;99378.84;;;8.90;100.00
12799;BME280;19250;42.646;26.980;2023-03-20T01:29:04;99363.00;;;8.79;100.00
12799;BME280;19250;42.646;26.980;2023-03-20T01:31:38;99375.38;;;8.40;100.00
12799;BME280;19250;42.646;26.980;2023-03-20T01:34:08;99376.81;;;8.63;100.00
12799;BME280;19250;42.646;26.980;2023-03-20T01:36:37;99379.44;;;8.53;100.00
12799;BME280;19250;42.646;26.980;2023-03-20T01:39:05;99367.75;;;7.95;100.00
12799;BME280;19250;42.646;26.980;2023-03-20T01:41:32;99368.28;;;8.50;100.00
12799;BME280;19250;42.646;26.980;2023-03-20T01:44:12;99372.69;;;8.30;100.00
12799;BME280;19250;42.646;26.980;2023-03-20T01:46:43;99361.97;;;7.81;100.00
12799;BME280;19250;42.646;26.980;2023-03-20T01:52:13;99362.50;;;8.45;100.00
12799;BME280;19250;42.646;26.980;2023-03-20T01:54:40;99366.19;;;8.63;100.00
12799;BME280;19250;42.646;26.980;2023-03-20T01:57:10;99361.47;;;8.95;100.00
12799;BME280;19250;42.646;26.980;2023-03-20T01:59:41;99364.84;;;9.26;100.00
12799;BME280;19250;42.646;26.980;2023-03-20T02:02:13;99372.94;;;9.44;100.00
12799;BME280;19250;42.646;26.980;2023-03-20T02:04:44;99374.75;;;9.53;100.00
12799;BME280;19250;42.646;26.980;2023-03-20T02:07:15;99371.91;;;9.54;100.00
12799;BME280;19250;42.646;26.980;2023-03-20T02:09:45;99377.97;;;9.18;100.00
12799;BME280;19250;42.646;26.980;2023-03-20T02:12:13;99368.72;;;8.64;100.00
12799;BME280;19250;42.646;26.980;2023-03-20T02:14:42;99370.66;;;8.13;100.00
12799;BME280;19250;42.646;26.980;2023-03-20T02:17:10;99356.84;;;7.89;100.00
12799;BME280;19250;42.646;26.980;2023-03-20T02:19:43;99360.78;;;7.94;100.00
12799;BME280;19250;42.646;26.980;2023-03-20T02:25:51;99358.72;;;7.98;100.00
12799;BME280;19250;42.646;26.980;2023-03-20T02:29:04;99363.41;;;8.25;100.00
12799;BME280;19250;42.646;26.980;2023-03-20T02:32:16;99358.88;;;8.36;100.00
12799;BME280;19250;42.646;26.980;2023-03-20T02:35:08;99354.41;;;8.37;100.00
12799;BME280;19250;42.646;26.980;2023-03-20T02:40:37;99363.44;;;8.84;100.00
12799;BME280;19250;42.646;26.980;2023-03-20T02:43:14;99363.53;;;8.72;100.00
12799;BME280;19250;42.646;26.980;2023-03-20T02:45:48;99362.84;;;8.70;100.00
12799;BME280;19250;42.646;26.980;2023-03-20T02:48:27;99362.59;;;8.93;100.00
12799;BME280;19250;42.646;26.980;2023-03-20T02:50:59;99363.44;;;8.84;100.00
12799;BME280;19250;42.646;26.980;2023-03-20T02:53:35;99361.69;;;8.54;100.00
12799;BME280;19250;42.646;26.980;2023-03-20T02:56:11;99349.91;;;8.28;100.00
12799;BME280;19250;42.646;26.980;2023-03-20T02:58:47;99264.50;;;8.02;100.00
12799;BME280;19250;42.646;26.980;2023-03-20T03:01:20;99346.88;;;8.61;100.00
12799;BME280;19250;42.646;26.980;2023-03-20T03:03:50;99342.56;;;8.69;100.00
12799;BME280;19250;42.646;26.980;2023-03-20T03:06:23;99332.34;;;8.65;100.00
12799;BME280;19250;42.646;26.980;2023-03-20T03:08:57;99347.44;;;8.55;100.00
12799;BME280;19250;42.646;26.980;2023-03-20T03:11:27;99347.69;;;8.42;100.00
12799;BME280;19250;42.646;26.980;2023-03-20T03:13:56;99345.09;;;8.81;100.00
12799;BME280;19250;42.646;26.980;2023-03-20T03:16:27;99343.97;;;8.64;100.00
12799;BME280;19250;42.646;26.980;2023-03-20T03:19:02;99331.72;;;8.33;100.00
12799;BME280;19250;42.646;26.980;2023-03-20T03:21:32;99353.44;;;8.17;100.00
12799;BME280;19250;42.646;26.980;2023-03-20T03:24:03;99351.78;;;8.16;100.00
12799;BME280;19250;42.646;26.980;2023-03-20T03:26:33;99346.22;;;8.19;100.00
12799;BME280;19250;42.646;26.980;2023-03-20T03:29:07;99348.84;;;8.09;100.00
12799;BME280;19250;42.646;26.980;2023-03-20T03:31:38;99347.66;;;8.33;100.00
12799;BME280;19250;42.646;26.980;2023-03-20T03:34:07;99343.41;;;8.70;100.00
12799;BME280;19250;42.646;26.980;2023-03-20T03:36:42;99342.13;;;8.15;100.00
12799;BME280;19250;42.646;26.980;2023-03-20T03:39:22;99335.56;;;8.09;100.00
12799;BME280;19250;42.646;26.980;2023-03-20T03:41:54;99340.31;;;8.15;100.00
12799;BME280;19250;42.646;26.980;2023-03-20T03:44:28;99342.78;;;8.28;100.00
12799;BME280;19250;42.646;26.980;2023-03-20T03:47:05;99338.72;;;8.34;100.00
12799;BME280;19250;42.646;26.980;2023-03-20T03:49:36;99330.75;;;7.94;100.00
12799;BME280;19250;42.646;26.980;2023-03-20T03:52:08;99336.97;;;6.91;100.00
12799;BME280;19250;42.646;26.980;2023-03-20T03:54:42;99333.03;;;7.06;100.00
12799;BME280;19250;42.646;26.980;2023-03-20T03:57:12;99331.16;;;7.38;100.00
12799;BME280;19250;42.646;26.980;2023-03-20T03:59:45;99329.28;;;7.80;100.00
12799;BME280;19250;42.646;26.980;2023-03-20T04:02:15;99334.63;;;7.59;100.00
12799;BME280;19250;42.646;26.980;2023-03-20T04:04:46;99331.28;;;7.16;100.00
12799;BME280;19250;42.646;26.980;2023-03-20T04:07:15;99327.41;;;6.99;100.00
12799;BME280;19250;42.646;26.980;2023-03-20T04:09:43;99331.97;;;7.59;100.00
12799;BME280;19250;42.646;26.980;2023-03-20T04:12:35;99333.66;;;7.60;100.00
12799;BME280;19250;42.646;26.980;2023-03-20T04:15:04;99344.63;;;8.07;100.00
12799;BME280;19250;42.646;26.980;2023-03-20T04:17:32;99339.50;;;8.25;100.00
12799;BME280;19250;42.646;26.980;2023-03-20T04:19:59;99335.59;;;8.19;100.00
12799;BME280;19250;42.646;26.980;2023-03-20T04:22:26;99334.25;;;8.34;100.00
12799;BME280;19250;42.646;26.980;2023-03-20T04:24:55;99337.69;;;7.85;100.00
12799;BME280;19250;42.646;26.980;2023-03-20T04:27:23;99341.72;;;8.10;100.00
12799;BME280;19250;42.646;26.980;2023-03-20T04:29:50;99339.63;;;7.83;100.00
12799;BME280;19250;42.646;26.980;2023-03-20T04:32:17;99348.09;;;8.07;100.00
12799;BME280;19250;42.646;26.980;2023-03-20T04:34:45;99338.56;;;8.35;100.00
12799;BME280;19250;42.646;26.980;2023-03-20T04:37:12;99340.88;;;7.49;100.00
12799;BME280;19250;42.646;26.980;2023-03-20T04:39:39;99328.28;;;8.11;100.00
12799;BME280;19250;42.646;26.980;2023-03-20T04:42:09;99331.88;;;7.71;100.00
12799;BME280;19250;42.646;26.980;2023-03-20T04:44:37;99336.47;;;6.97;100.00
12799;BME280;19250;42.646;26.980;2023-03-20T04:47:04;99334.91;;;7.15;100.00
12799;BME280;19250;42.646;26.980;2023-03-20T04:49:32;99340.06;;;6.96;100.00
12799;BME280;19250;42.646;26.980;2023-03-20T04:51:59;99341.97;;;6.73;100.00
12799;BME280;19250;42.646;26.980;2023-03-20T04:54:27;99344.59;;;6.41;100.00
12799;BME280;19250;42.646;26.980;2023-03-20T04:56:54;99349.75;;;6.43;100.00
12799;BME280;19250;42.646;26.980;2023-03-20T04:59:23;99341.69;;;6.44;100.00
12799;BME280;19250;42.646;26.980;2023-03-20T05:01:50;99344.50;;;6.75;100.00
12799;BME280;19250;42.646;26.980;2023-03-20T05:04:17;99344.69;;;7.35;100.00
12799;BME280;19250;42.646;26.980;2023-03-20T05:06:45;99338.34;;;7.78;100.00
12799;BME280;19250;42.646;26.980;2023-03-20T05:09:13;99347.25;;;7.46;100.00
12799;BME280;19250;42.646;26.980;2023-03-20T05:11:41;99334.25;;;7.74;100.00
12799;BME280;19250;42.646;26.980;2023-03-20T05:14:09;99342.53;;;7.29;100.00
12799;BME280;19250;42.646;26.980;2023-03-20T05:16:38;99348.34;;;7.44;100.00
12799;BME280;19250;42.646;26.980;2023-03-20T05:19:05;99347.19;;;7.16;100.00
12799;BME280;19250;42.646;26.980;2023-03-20T05:21:33;99359.06;;;7.01;100.00
12799;BME280;19250;42.646;26.980;2023-03-20T05:24:00;99355.69;;;6.78;100.00
12799;BME280;19250;42.646;26.980;2023-03-20T05:26:28;99360.59;;;6.83;100.00
12799;BME280;19250;42.646;26.980;2023-03-20T05:28:55;99350.69;;;6.96;100.00
12799;BME280;19250;42.646;26.980;2023-03-20T05:31:22;99361.38;;;6.94;100.00
12799;BME280;19250;42.646;26.980;2023-03-20T05:33:51;99362.50;;;7.12;100.00
12799;BME280;19250;42.646;26.980;2023-03-20T05:36:18;99356.84;;;7.89;100.00
12799;BME280;19250;42.646;26.980;2023-03-20T05:38:46;99356.91;;;7.47;100.00
12799;BME280;19250;42.646;26.980;2023-03-20T05:41:13;99353.56;;;7.76;100.00
12799;BME280;19250;42.646;26.980;2023-03-20T05:43:41;99350.81;;;8.66;100.00
12799;BME280;19250;42.646;26.980;2023-03-20T05:46:08;99367.38;;;8.99;100.00
12799;BME280;19250;42.646;26.980;2023-03-20T05:48:35;99372.94;;;9.15;100.00
12799;BME280;19250;42.646;26.980;2023-03-20T05:51:05;99374.63;;;9.25;100.00
12799;BME280;19250;42.646;26.980;2023-03-20T05:53:32;99364.50;;;9.48;100.00
12799;BME280;19250;42.646;26.980;2023-03-20T05:55:59;99364.09;;;9.43;100.00
12799;BME280;19250;42.646;26.980;2023-03-20T05:58:27;99372.94;;;9.05;100.00
12799;BME280;19250;42.646;26.980;2023-03-20T06:00:56;99366.50;;;8.89;100.00
12799;BME280;19250;42.646;26.980;2023-03-20T06:03:23;99344.38;;;8.79;100.00
12799;BME280;19250;42.646;26.980;2023-03-20T06:05:51;99360.22;;;8.80;100.00
12799;BME280;19250;42.646;26.980;2023-03-20T06:08:19;99358.94;;;8.94;100.00
12799;BME280;19250;42.646;26.980;2023-03-20T06:10:49;99365.81;;;8.87;100.00
12799;BME280;19250;42.646;26.980;2023-03-20T06:13:17;99366.22;;;8.72;100.00
12799;BME280;19250;42.646;26.980;2023-03-20T06:15:44;99368.19;;;9.09;100.00
12799;BME280;19250;42.646;26.980;2023-03-20T06:18:11;99362.72;;;8.82;100.00
12799;BME280;19250;42.646;26.980;2023-03-20T06:20:39;99361.25;;;8.39;100.00
12799;BME280;19250;42.646;26.980;2023-03-20T06:23:06;99377.41;;;8.76;100.00
12799;BME280;19250;42.646;26.980;2023-03-20T06:25:35;99368.34;;;9.07;100.00
12799;BME280;19250;42.646;26.980;2023-03-20T06:28:03;99367.53;;;7.78;100.00
12799;BME280;19250;42.646;26.980;2023-03-20T06:30:30;99374.84;;;8.46;100.00
12799;BME280;19250;42.646;26.980;2023-03-20T06:32:58;99374.38;;;8.10;100.00
12799;BME280;19250;42.646;26.980;2023-03-20T06:35:25;99374.03;;;8.64;100.00
12799;BME280;19250;42.646;26.980;2023-03-20T06:37:55;99378.00;;;8.99;100.00
12799;BME280;19250;42.646;26.980;2023-03-20T06:40:23;99366.06;;;7.85;100.00
12799;BME280;19250;42.646;26.980;2023-03-20T06:42:53;99365.91;;;8.47;100.00
12799;BME280;19250;42.646;26.980;2023-03-20T06:45:21;99371.84;;;8.89;100.00
12799;BME280;19250;42.646;26.980;2023-03-20T06:47:48;99363.41;;;8.64;100.00
12799;BME280;19250;42.646;26.980;2023-03-20T06:50:16;99370.78;;;8.51;100.00
12799;BME280;19250;42.646;26.980;2023-03-20T06:52:43;99362.31;;;8.86;100.00
12799;BME280;19250;42.646;26.980;2023-03-20T06:55:10;99368.19;;;9.38;100.00
12799;BME280;19250;42.646;26.980;2023-03-20T06:57:38;99375.59;;;9.24;100.00
12799;BME280;19250;42.646;26.980;2023-03-20T07:00:08;99363.66;;;8.52;100.00
12799;BME280;19250;42.646;26.980;2023-03-20T07:02:36;99369.94;;;8.11;100.00
12799;BME280;19250;42.646;26.980;2023-03-20T07:05:03;99369.38;;;8.17;100.00
12799;BME280;19250;42.646;26.980;2023-03-20T07:07:31;99363.03;;;7.99;100.00
12799;BME280;19250;42.646;26.980;2023-03-20T07:09:58;99370.84;;;9.09;100.00
12799;BME280;19250;42.646;26.980;2023-03-20T07:12:26;99375.16;;;9.48;100.00
12799;BME280;19250;42.646;26.980;2023-03-20T07:14:53;99372.81;;;9.36;100.00
12799;BME280;19250;42.646;26.980;2023-03-20T07:17:23;99365.91;;;9.52;100.00
12799;BME280;19250;42.646;26.980;2023-03-20T07:19:51;99369.72;;;9.30;100.00
12799;BME280;19250;42.646;26.980;2023-03-20T07:22:21;99368.47;;;9.25;100.00
12799;BME280;19250;42.646;26.980;2023-03-20T07:24:49;99364.50;;;8.52;100.00
12799;BME280;19250;42.646;26.980;2023-03-20T07:27:17;99369.56;;;8.84;100.00
12799;BME280;19250;42.646;26.980;2023-03-20T07:29:44;99355.38;;;8.36;100.00
12799;BME280;19250;42.646;26.980;2023-03-20T07:32:11;99362.28;;;8.57;100.00
12799;BME280;19250;42.646;26.980;2023-03-20T07:34:40;99366.47;;;8.60;100.00
12799;BME280;19250;42.646;26.980;2023-03-20T07:37:07;99357.28;;;7.94;100.00
12799;BME280;19250;42.646;26.980;2023-03-20T07:39:35;99359.63;;;7.87;100.00
12799;BME280;19250;42.646;26.980;2023-03-20T07:42:02;99362.13;;;7.58;100.00
12799;BME280;19250;42.646;26.980;2023-03-20T07:44:30;99364.31;;;7.74;100.00
12799;BME280;19250;42.646;26.980;2023-03-20T07:46:57;99371.56;;;8.02;100.00
12799;BME280;19250;42.646;26.980;2023-03-20T07:49:24;99374.50;;;7.99;100.00
12799;BME280;19250;42.646;26.980;2023-03-20T07:51:53;99378.81;;;8.70;100.00
12799;BME280;19250;42.646;26.980;2023-03-20T07:54:21;99373.56;;;8.10;100.00
12799;BME280;19250;42.646;26.980;2023-03-20T07:56:49;99375.00;;;8.23;100.00
12799;BME280;19250;42.646;26.980;2023-03-20T07:59:16;99371.66;;;8.21;100.00
12799;BME280;19250;42.646;26.980;2023-03-20T08:01:44;99365.53;;;7.91;100.00
12799;BME280;19250;42.646;26.980;2023-03-20T08:04:11;99363.22;;;8.56;100.00
12799;BME280;19250;42.646;26.980;2023-03-20T08:06:38;99370.97;;;8.88;100.00
12799;BME280;19250;42.646;26.980;2023-03-20T08:09:07;99372.13;;;9.05;100.00
12799;BME280;19250;42.646;26.980;2023-03-20T08:11:35;99383.25;;;8.20;100.00
12799;BME280;19250;42.646;26.980;2023-03-20T08:14:02;99380.47;;;8.81;100.00
12799;BME280;19250;42.646;26.980;2023-03-20T08:16:30;99383.47;;;9.92;100.00
12799;BME280;19250;42.646;26.980;2023-03-20T08:18:57;99383.28;;;9.56;100.00
12799;BME280;19250;42.646;26.980;2023-03-20T08:21:26;99379.28;;;9.79;100.00
12799;BME280;19250;42.646;26.980;2023-03-20T08:23:53;99382.00;;;10.07;100.00
12799;BME280;19250;42.646;26.980;2023-03-20T08:26:23;99382.97;;;10.15;100.00
12799;BME280;19250;42.646;26.980;2023-03-20T08:28:50;99387.38;;;9.41;100.00
12799;BME280;19250;42.646;26.980;2023-03-20T08:31:17;99376.34;;;9.82;100.00
12799;BME280;19250;42.646;26.980;2023-03-20T08:33:45;99394.72;;;10.77;100.00
12799;BME280;19250;42.646;26.980;2023-03-20T08:36:13;99387.25;;;11.51;100.00
12799;BME280;19250;42.646;26.980;2023-03-20T08:38:41;99385.84;;;12.08;100.00
12799;BME280;19250;42.646;26.980;2023-03-20T08:41:09;99390.28;;;11.13;100.00
12799;BME280;19250;42.646;26.980;2023-03-20T08:43:37;99392.50;;;12.04;100.00
12799;BME280;19250;42.646;26.980;2023-03-20T08:46:05;99393.34;;;12.88;100.00
12799;BME280;19250;42.646;26.980;2023-03-20T08:48:33;99389.06;;;14.63;100.00
12799;BME280;19250;42.646;26.980;2023-03-20T08:51:00;99386.91;;;15.35;98.07
12799;BME280;19250;42.646;26.980;2023-03-20T08:53:28;99383.47;;;15.26;93.36
12799;BME280;19250;42.646;26.980;2023-03-20T08:55:55;99376.34;;;14.88;94.09
12799;BME280;19250;42.646;26.980;2023-03-20T08:58:22;99382.09;;;15.31;94.38
12799;BME280;19250;42.646;26.980;2023-03-20T09:00:51;99380.84;;;16.16;87.00
12799;BME280;19250;42.646;26.980;2023-03-20T09:03:20;99358.38;;;14.58;92.28
12799;BME280;19250;42.646;26.980;2023-03-20T09:05:49;99368.56;;;14.93;96.51
12799;BME280;19250;42.646;26.980;2023-03-20T09:08:17;99363.31;;;15.45;91.59
12799;BME280;19250;42.646;26.980;2023-03-20T09:10:46;99366.91;;;16.71;81.93
12799;BME280;19250;42.646;26.980;2023-03-20T09:13:13;99379.56;;;17.70;74.27
12799;BME280;19250;42.646;26.980;2023-03-20T09:15:41;99361.19;;;15.41;86.31
12799;BME280;19250;42.646;26.980;2023-03-20T09:18:09;99349.50;;;14.02;96.75
12799;BME280;19250;42.646;26.980;2023-03-20T09:20:37;99361.50;;;15.00;87.84
12799;BME280;19250;42.646;26.980;2023-03-20T09:23:04;99360.00;;;14.20;94.68
12799;BME280;19250;42.646;26.980;2023-03-20T09:25:31;99356.69;;;14.57;93.57
12799;BME280;19250;42.646;26.980;2023-03-20T09:27:58;99350.06;;;14.76;88.92
12799;BME280;19250;42.646;26.980;2023-03-20T09:30:26;99349.88;;;13.83;95.27
12799;BME280;19250;42.646;26.980;2023-03-20T09:32:53;99357.63;;;13.46;100.00
12799;BME280;19250;42.646;26.980;2023-03-20T09:35:22;99346.94;;;14.64;97.99
12799;BME280;19250;42.646;26.980;2023-03-20T09:37:49;99350.81;;;15.38;86.34
12799;BME280;19250;42.646;26.980;2023-03-20T09:40:24;99343.03;;;15.20;86.50
12799;BME280;19250;42.646;26.980;2023-03-20T09:42:59;99339.19;;;14.69;93.96
12799;BME280;19250;42.646;26.980;2023-03-20T09:45:38;99341.84;;;17.06;79.06
12799;BME280;19250;42.646;26.980;2023-03-20T09:48:13;99341.63;;;18.74;67.44
12799;BME280;19250;42.646;26.980;2023-03-20T09:50:47;99339.94;;;17.70;67.01
12799;BME280;19250;42.646;26.980;2023-03-20T09:53:21;99332.22;;;17.95;69.92
12799;BME280;19250;42.646;26.980;2023-03-20T09:55:51;99334.59;;;18.45;63.87
12799;BME280;19250;42.646;26.980;2023-03-20T09:58:23;99328.44;;;19.32;59.37
12799;BME280;19250;42.646;26.980;2023-03-20T10:00:51;99326.31;;;19.21;56.83
12799;BME280;19250;42.646;26.980;2023-03-20T10:03:25;99319.09;;;19.54;57.89
12799;BME280;19250;42.646;26.980;2023-03-20T10:05:58;99317.88;;;19.50;56.27
12799;BME280;19250;42.646;26.980;2023-03-20T10:08:31;99319.56;;;18.30;62.34
12799;BME280;19250;42.646;26.980;2023-03-20T10:11:06;99318.31;;;17.42;67.71
12799;BME280;19250;42.646;26.980;2023-03-20T10:13:58;99321.13;;;18.11;65.03
12799;BME280;19250;42.646;26.980;2023-03-20T10:16:41;99310.31;;;19.19;57.52
12799;BME280;19250;42.646;26.980;2023-03-20T10:19:18;99318.00;;;20.78;52.99
12799;BME280;19250;42.646;26.980;2023-03-20T10:21:50;99277.56;;;21.89;45.81
12799;BME280;19250;42.646;26.980;2023-03-20T10:24:23;99299.91;;;23.88;39.67
12799;BME280;19250;42.646;26.980;2023-03-20T10:26:59;99299.31;;;24.20;38.25
12799;BME280;19250;42.646;26.980;2023-03-20T10:29:35;99297.72;;;23.02;38.48
12799;BME280;19250;42.646;26.980;2023-03-20T10:32:10;99288.44;;;21.82;42.13
12799;BME280;19250;42.646;26.980;2023-03-20T10:34:48;99282.63;;;22.88;40.72
12799;BME280;19250;42.646;26.980;2023-03-20T10:37:33;99279.34;;;23.39;38.99
12799;BME280;19250;42.646;26.980;2023-03-20T10:40:20;99286.28;;;21.41;42.88
12799;BME280;19250;42.646;26.980;2023-03-20T10:42:53;99282.88;;;19.81;47.84
12799;BME280;19250;42.646;26.980;2023-03-20T10:45:30;99268.88;;;17.57;59.93
12799;BME280;19250;42.646;26.980;2023-03-20T10:48:03;99266.88;;;18.47;56.80
12799;BME280;19250;42.646;26.980;2023-03-20T10:50:35;99263.56;;;18.04;58.86
12799;BME280;19250;42.646;26.980;2023-03-20T10:53:05;99264.13;;;20.88;48.26
12799;BME280;19250;42.646;26.980;2023-03-20T10:55:37;99237.25;;;19.85;47.61
12799;BME280;19250;42.646;26.980;2023-03-20T10:58:14;99260.09;;;21.29;46.23
12799;BME280;19250;42.646;26.980;2023-03-20T11:00:43;99256.34;;;21.30;43.66
12799;BME280;19250;42.646;26.980;2023-03-20T11:03:19;99182.19;;;19.27;47.00
12799;BME280;19250;42.646;26.980;2023-03-20T11:05:52;99238.16;;;19.46;50.89
12799;BME280;19250;42.646;26.980;2023-03-20T11:08:24;99232.78;;;21.73;44.27
12799;BME280;19250;42.646;26.980;2023-03-20T11:11:00;99225.91;;;20.65;45.02
12799;BME280;19250;42.646;26.980;2023-03-20T11:13:31;99229.59;;;19.03;51.41
12799;BME280;19250;42.646;26.980;2023-03-20T11:16:10;99176.41;;;18.77;51.32
12799;BME280;19250;42.646;26.980;2023-03-20T11:18:42;99213.97;;;18.66;53.33
12799;BME280;19250;42.646;26.980;2023-03-20T11:21:15;99210.44;;;19.64;51.54
12799;BME280;19250;42.646;26.980;2023-03-20T11:23:45;99208.97;;;21.93;42.46
12799;BME280;19250;42.646;26.980;2023-03-20T11:26:13;99204.16;;;21.95;42.43
12799;BME280;19250;42.646;26.980;2023-03-20T11:28:47;99205.50;;;20.62;44.05
12799;BME280;19250;42.646;26.980;2023-03-20T11:31:17;99207.38;;;20.62;44.74
12799;BME280;19250;42.646;26.980;2023-03-20T11:33:49;99197.94;;;21.27;42.66
12799;BME280;19250;42.646;26.980;2023-03-20T11:36:22;99201.31;;;20.67;45.56
12799;BME280;19250;42.646;26.980;2023-03-20T11:38:52;99186.41;;;21.93;43.53
12799;BME280;19250;42.646;26.980;2023-03-20T11:41:26;99185.03;;;21.84;41.47
12799;BME280;19250;42.646;26.980;2023-03-20T11:43:53;99175.31;;;22.42;39.05
12799;BME280;19250;42.646;26.980;2023-03-20T11:46:22;99193.63;;;20.26;44.44
12799;BME280;19250;42.646;26.980;2023-03-20T11:49:14;99186.00;;;20.47;45.63
12799;BME280;19250;42.646;26.980;2023-03-20T11:51:45;99176.63;;;20.43;44.37
12799;BME280;19250;42.646;26.980;2023-03-20T11:54:18;99171.19;;;20.50;44.48
12799;BME280;19250;42.646;26.980;2023-03-20T11:56:55;99159.19;;;21.20;42.10
12799;BME280;19250;42.646;26.980;2023-03-20T11:59:25;99160.50;;;20.55;44.99
12799;BME280;19250;42.646;26.980;2023-03-20T12:01:57;99170.41;;;19.92;45.89
12799;BME280;19250;42.646;26.980;2023-03-20T12:04:29;99156.19;;;20.03;46.84
12799;BME280;19250;42.646;26.980;2023-03-20T12:07:00;99160.25;;;20.63;44.75
12799;BME280;19250;42.646;26.980;2023-03-20T12:09:38;99154.97;;;19.99;46.88
12799;BME280;19250;42.646;26.980;2023-03-20T12:12:13;99151.00;;;19.11;49.68
12799;BME280;19250;42.646;26.980;2023-03-20T12:14:47;99146.72;;;19.87;48.00
12799;BME280;19250;42.646;26.980;2023-03-20T12:17:31;99101.06;;;19.33;48.95
12799;BME280;19250;42.646;26.980;2023-03-20T12:20:05;99140.22;;;18.91;51.44
12799;BME280;19250;42.646;26.980;2023-03-20T12:22:41;99140.88;;;19.84;48.79
12799;BME280;19250;42.646;26.980;2023-03-20T12:25:19;99137.69;;;21.43;43.47
12799;BME280;19250;42.646;26.980;2023-03-20T12:27:54;99124.31;;;23.09;39.89
12799;BME280;19250;42.646;26.980;2023-03-20T12:30:30;99120.84;;;22.37;39.73
12799;BME280;19250;42.646;26.980;2023-03-20T12:33:03;99122.78;;;21.89;40.87
12799;BME280;19250;42.646;26.980;2023-03-20T12:35:35;99122.78;;;22.60;39.20
12799;BME280;19250;42.646;26.980;2023-03-20T12:38:13;99124.13;;;23.45;38.20
12799;BME280;19250;42.646;26.980;2023-03-20T12:40:45;99118.81;;;22.33;39.30
12799;BME280;19250;42.646;26.980;2023-03-20T12:43:14;99112.22;;;25.26;34.87
12799;BME280;19250;42.646;26.980;2023-03-20T12:45:48;99107.16;;;23.20;37.60
12799;BME280;19250;42.646;26.980;2023-03-20T12:48:45;99112.91;;;24.10;36.47
12799;BME280;19250;42.646;26.980;2023-03-20T12:51:21;99107.59;;;22.70;38.46
12799;BME280;19250;42.646;26.980;2023-03-20T12:54:01;99108.25;;;23.94;36.11
12799;BME280;19250;42.646;26.980;2023-03-20T12:56:54;99105.97;;;24.75;35.25
12799;BME280;19250;42.646;26.980;2023-03-20T12:59:29;99037.34;;;22.44;37.41
12799;BME280;19250;42.646;26.980;2023-03-20T13:02:10;99097.81;;;24.92;34.71
12799;BME280;19250;42.646;26.980;2023-03-20T13:04:49;99103.53;;;24.62;34.84
12799;BME280;19250;42.646;26.980;2023-03-20T13:07:22;99088.75;;;25.25;34.40
12799;BME280;19250;42.646;26.980;2023-03-20T13:10:02;99097.19;;;24.57;34.58
12799;BME280;19250;42.646;26.980;2023-03-20T13:12:41;99096.19;;;24.63;33.91
12799;BME280;19250;42.646;26.980;2023-03-20T13:15:21;99065.63;;;25.49;33.11
12799;BME280;19250;42.646;26.980;2023-03-20T13:17:53;99094.22;;;24.02;34.82
12799;BME280;19250;42.646;26.980;2023-03-20T13:20:24;99089.09;;;22.49;38.49